createdAt,value
2023-03-18T00:04:12.999Z,10.29
2023-03-18T00:09:14.556Z,10.41
2023-03-18T00:14:17.489Z,10.36
2023-03-18T00:19:19.122Z,10.42
2023-03-18T00:24:20.680Z,10.20
2023-03-18T00:29:23.903Z,9.94
2023-03-18T00:34:25.624Z,9.77
2023-03-18T00:39:27.143Z,9.66
2023-03-18T00:44:30.071Z,9.61
2023-03-18T00:49:31.562Z,9.62
2023-03-18T00:54:33.020Z,9.53
2023-03-18T00:59:35.970Z,9.58
2023-03-18T01:04:37.568Z,9.54
2023-03-18T01:09:39.472Z,9.59
2023-03-18T01:14:42.488Z,9.62
2023-03-18T01:19:44.116Z,9.94
2023-03-18T01:24:45.698Z,10.17
2023-03-18T01:29:48.636Z,9.73
2023-03-18T01:34:50.118Z,9.85
2023-03-18T01:39:52.065Z,9.98
2023-03-18T01:45:15.230Z,9.77
2023-03-18T01:50:19.707Z,9.89
2023-03-18T01:55:24.356Z,10.05
2023-03-18T02:00:27.303Z,10.01
2023-03-18T02:05:29.349Z,10.11
2023-03-18T02:10:31.901Z,10.17
2023-03-18T02:15:38.318Z,10.31
2023-03-18T02:20:58.675Z,10.38
2023-03-18T02:26:07.542Z,10.25
2023-03-18T02:31:13.297Z,9.94
2023-03-18T02:36:19.307Z,9.79
2023-03-18T02:41:23.261Z,9.58
2023-03-18T02:46:35.801Z,9.72
2023-03-18T02:51:38.003Z,9.73
2023-03-18T02:56:40.343Z,9.89
2023-03-18T03:01:45.316Z,9.87
2023-03-18T03:06:46.983Z,10.02
2023-03-18T03:11:49.018Z,10.07
2023-03-18T03:16:52.053Z,10.12
2023-03-18T03:21:53.559Z,10.31
2023-03-18T03:26:55.038Z,10.18
2023-03-18T03:31:57.874Z,10.24
2023-03-18T03:36:59.410Z,10.02
2023-03-18T03:42:01.033Z,9.93
2023-03-18T03:47:03.958Z,9.64
2023-03-18T03:52:06.057Z,9.73
2023-03-18T03:57:07.743Z,9.65
2023-03-18T04:02:10.915Z,9.75
2023-03-18T04:07:12.503Z,9.66
2023-03-18T04:12:14.301Z,9.65
2023-03-18T04:17:17.233Z,9.52
2023-03-18T04:22:18.852Z,9.44
2023-03-18T04:27:20.459Z,9.39
2023-03-18T04:32:23.408Z,9.44
2023-03-18T04:37:24.931Z,9.44
2023-03-18T04:42:26.475Z,9.41
2023-03-18T04:47:29.284Z,9.40
2023-03-18T04:52:30.894Z,9.37
2023-03-18T04:57:32.512Z,9.25
2023-03-18T05:02:35.407Z,9.22
2023-03-18T05:07:37.563Z,9.25
2023-03-18T05:12:39.206Z,8.87
2023-03-18T05:17:42.085Z,9.23
2023-03-18T05:22:43.619Z,9.17
2023-03-18T05:27:45.280Z,9.20
2023-03-18T05:32:48.184Z,9.24
2023-03-18T05:37:49.809Z,9.20
2023-03-18T05:42:56.195Z,9.15
2023-03-18T05:47:59.466Z,9.21
2023-03-18T05:53:02.463Z,9.31
2023-03-18T05:58:04.343Z,9.31
2023-03-18T06:03:07.288Z,9.47
2023-03-18T06:08:08.843Z,9.49
2023-03-18T06:13:11.448Z,9.48
2023-03-18T06:18:14.269Z,9.78
2023-03-18T06:23:15.753Z,9.94
2023-03-18T06:28:17.232Z,9.44
2023-03-18T06:33:20.097Z,9.53
2023-03-18T06:38:22.029Z,9.71
2023-03-18T06:43:23.894Z,10.12
2023-03-18T06:48:27.063Z,10.25
2023-03-18T06:53:28.556Z,10.30
2023-03-18T06:58:30.081Z,10.06
2023-03-18T07:03:33.046Z,10.14
2023-03-18T07:08:34.545Z,10.51
2023-03-18T07:13:36.254Z,10.85
2023-03-18T07:18:39.175Z,10.92
2023-03-18T07:23:40.720Z,11.21
2023-03-18T07:28:42.170Z,11.53
2023-03-18T07:33:45.112Z,11.60
2023-03-18T07:38:46.817Z,11.28
2023-03-18T07:43:48.339Z,11.70
2023-03-18T07:48:51.252Z,12.11
2023-03-18T07:53:52.755Z,12.37
2023-03-18T07:58:54.285Z,12.49
2023-03-18T08:03:57.645Z,13.12
2023-03-18T08:08:59.275Z,13.59
2023-03-18T08:14:01.197Z,13.73
2023-03-18T08:19:04.016Z,14.28
2023-03-18T08:24:06.749Z,14.60
2023-03-18T08:29:08.298Z,14.63
2023-03-18T08:34:11.202Z,15.11
2023-03-18T08:39:12.816Z,15.75
2023-03-18T08:44:14.393Z,15.06
2023-03-18T08:49:17.334Z,15.70
2023-03-18T08:54:18.910Z,15.38
2023-03-18T08:59:20.453Z,15.16
2023-03-18T09:04:23.305Z,14.92
2023-03-18T09:09:40.863Z,15.13
2023-03-18T09:14:44.401Z,15.19
2023-03-18T09:19:47.478Z,14.94
2023-03-18T09:24:48.981Z,15.17
2023-03-18T09:29:50.520Z,14.76
2023-03-18T09:34:53.669Z,14.62
2023-03-18T09:39:55.170Z,14.55
2023-03-18T09:45:00.579Z,14.96
2023-03-18T09:50:16.133Z,15.14
2023-03-18T09:55:26.282Z,15.42
2023-03-18T10:00:31.365Z,15.32
2023-03-18T10:05:48.326Z,15.63
2023-03-18T10:10:49.990Z,15.93
2023-03-18T10:15:54.286Z,15.58
2023-03-18T10:21:11.083Z,15.58
2023-03-18T10:26:16.542Z,16.22
2023-03-18T10:31:27.139Z,16.12
2023-03-18T10:36:38.566Z,16.45
2023-03-18T10:41:41.363Z,16.10
2023-03-18T10:46:44.353Z,16.37
2023-03-18T10:51:54.322Z,16.95
2023-03-18T10:56:55.924Z,16.62
2023-03-18T11:02:02.355Z,16.57
2023-03-18T11:07:08.301Z,16.51
2023-03-18T11:12:18.640Z,16.76
2023-03-18T11:17:25.508Z,16.67
2023-03-18T11:22:29.868Z,16.88
2023-03-18T11:27:38.391Z,16.79
2023-03-18T11:32:51.477Z,17.01
2023-03-18T11:37:54.368Z,16.74
2023-03-18T11:42:57.997Z,16.80
2023-03-18T11:48:00.094Z,17.21
2023-03-18T11:53:10.585Z,16.96
2023-03-18T11:58:42.116Z,17.17
2023-03-18T12:04:12.950Z,17.12
2023-03-18T12:09:23.439Z,17.29
2023-03-18T12:14:32.775Z,16.92
2023-03-18T12:19:51.082Z,16.80
2023-03-18T12:25:07.660Z,16.91
2023-03-18T12:30:40.877Z,16.94
2023-03-18T12:35:52.086Z,16.73
2023-03-18T12:41:02.206Z,17.05
2023-03-18T12:46:11.122Z,16.97
2023-03-18T12:51:18.385Z,17.03
2023-03-18T12:56:25.547Z,17.06
2023-03-18T13:01:35.940Z,17.09
2023-03-18T13:06:40.682Z,17.22
2023-03-18T13:11:57.501Z,17.10
2023-03-18T13:17:00.582Z,17.13
2023-03-18T13:22:13.170Z,17.30
2023-03-18T13:27:41.126Z,17.44
2023-03-18T13:32:58.371Z,17.38
2023-03-18T13:38:13.632Z,17.52
2023-03-18T13:43:19.252Z,17.75
2023-03-18T13:48:26.702Z,17.75
2023-03-18T13:53:30.642Z,17.60
2023-03-18T13:58:42.736Z,17.79
2023-03-18T14:03:56.059Z,17.66
2023-03-18T14:08:57.751Z,17.83
2023-03-18T14:14:02.194Z,17.98
2023-03-18T14:19:09.952Z,17.95
2023-03-18T14:24:12.907Z,18.20
2023-03-18T14:29:24.336Z,18.05
2023-03-18T14:34:28.671Z,18.06
2023-03-18T14:39:34.057Z,17.92
2023-03-18T14:44:42.871Z,17.98
2023-03-18T14:49:48.217Z,18.01
2023-03-18T14:54:52.332Z,17.82
2023-03-18T14:59:55.266Z,17.67
2023-03-18T15:05:00.276Z,17.50
2023-03-18T15:10:04.740Z,17.54
2023-03-18T15:15:14.803Z,17.17
2023-03-18T15:20:16.616Z,17.10
2023-03-18T15:25:20.444Z,17.06
2023-03-18T15:30:27.415Z,16.92
2023-03-18T15:35:28.906Z,16.95
2023-03-18T15:40:32.576Z,16.73
2023-03-18T15:45:39.530Z,17.06
2023-03-18T15:50:52.805Z,16.99
2023-03-18T15:55:55.547Z,17.30
2023-03-18T16:00:58.497Z,16.95
2023-03-18T16:06:01.434Z,17.01
2023-03-18T16:11:03.340Z,16.99
2023-03-18T16:16:09.898Z,16.77
2023-03-18T16:21:13.085Z,16.71
2023-03-18T16:26:16.855Z,16.80
2023-03-18T16:31:19.865Z,16.88
2023-03-18T16:36:29.126Z,16.84
2023-03-18T16:41:30.669Z,16.75
2023-03-18T16:46:40.211Z,16.88
2023-03-18T16:51:42.016Z,17.01
2023-03-18T16:56:43.637Z,16.72
2023-03-18T17:01:46.578Z,16.68
2023-03-18T17:06:48.163Z,16.59
2023-03-18T17:11:53.643Z,16.82
2023-03-18T17:16:57.569Z,16.56
2023-03-18T17:21:59.120Z,16.51
2023-03-18T17:27:01.635Z,16.60
2023-03-18T17:32:05.664Z,16.50
2023-03-18T17:37:07.238Z,16.44
2023-03-18T17:42:24.666Z,16.48
2023-03-18T17:47:27.575Z,16.22
2023-03-18T17:52:29.149Z,16.11
2023-03-18T17:57:30.673Z,16.15
2023-03-18T18:02:34.811Z,16.04
2023-03-18T18:07:36.490Z,16.09
2023-03-18T18:12:38.621Z,15.99
2023-03-18T18:17:41.515Z,15.96
2023-03-18T18:22:45.769Z,15.10
2023-03-18T18:27:47.693Z,14.65
2023-03-18T18:32:50.860Z,14.30
2023-03-18T18:37:52.514Z,14.42
2023-03-18T18:42:54.087Z,14.49
2023-03-18T18:47:57.024Z,14.81
2023-03-18T18:52:58.682Z,14.82
2023-03-18T18:58:00.177Z,14.65
2023-03-18T19:03:03.140Z,14.76
2023-03-18T19:08:04.809Z,14.78
2023-03-18T19:13:12.829Z,14.79
2023-03-18T19:18:20.693Z,14.65
2023-03-18T19:23:25.888Z,14.64
2023-03-18T19:28:31.833Z,14.57
2023-03-18T19:33:35.226Z,14.55
2023-03-18T19:38:37.025Z,14.58
2023-03-18T19:43:38.511Z,14.49
2023-03-18T19:48:41.479Z,14.40
2023-03-18T19:53:43.398Z,14.41
2023-03-18T19:58:44.891Z,14.24
2023-03-18T20:03:48.181Z,14.14
2023-03-18T20:08:50.014Z,13.56
2023-03-18T20:13:51.645Z,13.75
2023-03-18T20:18:54.561Z,13.74
2023-03-18T20:24:03.015Z,13.91
2023-03-18T20:29:15.544Z,13.84
2023-03-18T20:34:18.428Z,13.87
2023-03-18T20:39:22.040Z,13.43
2023-03-18T20:44:23.582Z,12.51
2023-03-18T20:49:26.502Z,12.53
2023-03-18T20:54:30.514Z,12.84
2023-03-18T20:59:32.187Z,13.29
2023-03-18T21:04:35.193Z,13.32
2023-03-18T21:09:36.822Z,13.54
2023-03-18T21:14:38.482Z,12.92
2023-03-18T21:19:41.440Z,13.14
2023-03-18T21:24:42.913Z,13.19
2023-03-18T21:29:44.408Z,13.23
2023-03-18T21:34:47.386Z,13.17
2023-03-18T21:39:49.535Z,13.12
2023-03-18T21:44:51.966Z,13.23
2023-03-18T21:49:54.831Z,13.29
2023-03-18T21:54:56.456Z,13.15
2023-03-18T21:59:57.963Z,12.66
2023-03-18T22:05:02.921Z,12.59
2023-03-18T22:10:04.906Z,12.50
2023-03-18T22:15:28.925Z,12.31
2023-03-18T22:20:32.238Z,12.43
2023-03-18T22:25:35.655Z,12.75
2023-03-18T22:30:38.944Z,13.10
2023-03-18T22:35:41.815Z,12.74
2023-03-18T22:40:44.736Z,12.40
2023-03-18T22:45:46.321Z,11.76
2023-03-18T22:50:49.300Z,11.48
2023-03-18T22:55:53.277Z,11.47
2023-03-18T23:00:55.385Z,11.28
2023-03-18T23:05:59.381Z,11.37
2023-03-18T23:11:01.959Z,11.61
2023-03-18T23:16:04.293Z,11.08
2023-03-18T23:21:09.786Z,11.15
2023-03-18T23:26:11.459Z,10.90
2023-03-18T23:31:13.735Z,11.18
2023-03-18T23:36:16.741Z,11.31
2023-03-18T23:41:18.325Z,11.69
2023-03-18T23:46:19.951Z,11.55
2023-03-18T23:51:22.917Z,11.06
2023-03-18T23:56:24.481Z,10.69
